createdAt,value
2022-11-20T00:01:08.869Z,9.50
2022-11-20T00:03:37.308Z,8.70
2022-11-20T00:06:07.317Z,10.00
2022-11-20T00:08:35.588Z,9.77
2022-11-20T00:11:06.238Z,9.98
2022-11-20T00:13:34.336Z,10.80
2022-11-20T00:16:03.555Z,9.68
2022-11-20T00:18:36.755Z,9.77
2022-11-20T00:21:14.709Z,10.60
2022-11-20T00:23:49.136Z,10.23
2022-11-20T00:26:32.211Z,9.77
2022-11-20T00:29:02.385Z,10.15
2022-11-20T00:31:36.773Z,9.60
2022-11-20T00:34:13.352Z,9.57
2022-11-20T00:36:58.313Z,10.07
2022-11-20T00:39:28.875Z,9.05
2022-11-20T00:41:57.283Z,10.02
2022-11-20T00:44:32.660Z,8.57
2022-11-20T00:47:12.095Z,9.43
2022-11-20T00:49:45.402Z,9.23
2022-11-20T00:52:21.035Z,9.02
2022-11-20T00:57:49.353Z,9.50
2022-11-20T01:00:19.476Z,9.30
2022-11-20T01:02:47.927Z,9.35
2022-11-20T01:05:17.673Z,9.57
2022-11-20T01:07:45.768Z,8.50
2022-11-20T01:10:16.503Z,10.02
2022-11-20T01:13:14.202Z,10.05
2022-11-20T01:15:45.962Z,9.10
2022-11-20T01:18:23.720Z,8.85
2022-11-20T01:20:56.739Z,9.07
2022-11-20T01:23:28.819Z,8.60
2022-11-20T01:26:02.441Z,9.32
2022-11-20T01:28:33.163Z,8.63
2022-11-20T01:31:02.216Z,8.85
2022-11-20T01:33:30.770Z,9.23
2022-11-20T01:36:07.960Z,9.13
2022-11-20T01:38:46.184Z,9.68
2022-11-20T01:41:35.636Z,9.27
2022-11-20T01:44:05.131Z,8.80
2022-11-20T01:46:39.132Z,9.43
2022-11-20T01:49:12.984Z,9.88
2022-11-20T01:51:57.409Z,9.10
2022-11-20T01:54:36.618Z,9.38
2022-11-20T01:57:11.818Z,9.15
2022-11-20T01:59:48.963Z,9.43
2022-11-20T02:02:24.257Z,10.30
2022-11-20T02:04:56.920Z,9.70
2022-11-20T02:07:26.974Z,7.45
2022-11-20T02:09:58.765Z,9.38
2022-11-20T02:12:44.709Z,9.35
2022-11-20T02:15:12.891Z,9.93
2022-11-20T02:17:40.903Z,10.35
2022-11-20T02:20:10.382Z,10.02
2022-11-20T02:22:46.102Z,10.07
2022-11-20T02:25:16.666Z,10.40
2022-11-20T02:27:45.183Z,10.65
2022-11-20T02:30:13.812Z,10.80
2022-11-20T02:32:41.939Z,10.68
2022-11-20T02:35:31.521Z,10.45
2022-11-20T02:38:03.403Z,10.23
2022-11-20T02:40:32.884Z,10.48
2022-11-20T02:43:00.918Z,11.32
2022-11-20T02:45:28.945Z,10.20
2022-11-20T02:47:56.917Z,10.02
2022-11-20T02:50:25.133Z,9.60
2022-11-20T02:52:53.028Z,10.55
2022-11-20T02:55:21.317Z,10.57
2022-11-20T02:57:50.679Z,9.68
2022-11-20T03:00:18.928Z,10.23
2022-11-20T03:02:46.964Z,9.57
2022-11-20T03:05:15.057Z,10.20
2022-11-20T03:07:43.046Z,11.25
2022-11-20T03:10:11.633Z,9.52
2022-11-20T03:12:39.577Z,10.38
2022-11-20T03:15:10.703Z,10.10
2022-11-20T03:17:38.719Z,10.40
2022-11-20T03:20:08.051Z,9.63
2022-11-20T03:22:36.072Z,8.63
2022-11-20T03:25:04.180Z,10.55
2022-11-20T03:27:34.716Z,9.15
2022-11-20T03:30:03.355Z,9.65
2022-11-20T03:32:32.673Z,9.77
2022-11-20T03:35:00.664Z,9.50
2022-11-20T03:37:28.680Z,9.85
2022-11-20T03:39:56.778Z,8.57
2022-11-20T03:42:42.304Z,8.77
2022-11-20T03:45:11.192Z,9.50
2022-11-20T03:47:41.256Z,9.40
2022-11-20T03:50:10.434Z,8.90
2022-11-20T03:52:38.423Z,8.48
2022-11-20T03:55:07.040Z,7.80
2022-11-20T03:57:35.604Z,8.88
2022-11-20T04:00:04.165Z,8.13
2022-11-20T04:02:32.652Z,8.95
2022-11-20T04:05:01.998Z,8.27
2022-11-20T04:07:29.982Z,8.77
2022-11-20T04:09:58.000Z,8.77
2022-11-20T04:12:26.149Z,8.70
2022-11-20T04:14:54.038Z,7.15
2022-11-20T04:17:22.013Z,9.23
2022-11-20T04:19:49.882Z,9.10
2022-11-20T04:22:19.192Z,8.77
2022-11-20T04:24:47.157Z,9.50
2022-11-20T04:27:15.216Z,9.38
2022-11-20T04:29:43.613Z,9.07
2022-11-20T04:32:11.773Z,10.48
2022-11-20T04:34:39.727Z,9.48
2022-11-20T04:37:07.755Z,9.10
2022-11-20T04:39:37.005Z,9.85
2022-11-20T04:42:22.845Z,9.10
2022-11-20T04:44:50.918Z,9.25
2022-11-20T04:47:18.829Z,10.30
2022-11-20T04:49:46.811Z,8.55
2022-11-20T04:52:15.398Z,9.65
2022-11-20T04:54:44.767Z,8.85
2022-11-20T04:57:14.872Z,8.40
2022-11-20T04:59:43.614Z,7.63
2022-11-20T05:02:12.637Z,7.75
2022-11-20T05:04:40.513Z,8.10
2022-11-20T05:07:08.473Z,7.72
2022-11-20T05:09:36.374Z,8.13
2022-11-20T05:12:06.024Z,8.32
2022-11-20T05:14:33.888Z,8.25
2022-11-20T05:17:01.994Z,9.23
2022-11-20T05:19:29.909Z,9.07
2022-11-20T05:21:57.809Z,8.05
2022-11-20T05:24:25.827Z,8.93
2022-11-20T05:26:53.862Z,9.02
2022-11-20T05:29:23.482Z,8.98
2022-11-20T05:31:51.486Z,9.02
2022-11-20T05:34:19.513Z,8.80
2022-11-20T05:36:47.355Z,7.93
2022-11-20T05:39:15.438Z,8.20
2022-11-20T05:41:43.399Z,8.88
2022-11-20T05:44:13.262Z,8.07
2022-11-20T05:46:42.492Z,8.30
2022-11-20T05:49:10.882Z,8.63
2022-11-20T05:51:38.988Z,8.82
2022-11-20T05:54:07.003Z,8.23
2022-11-20T05:56:34.978Z,8.88
2022-11-20T05:59:03.111Z,8.30
2022-11-20T06:01:31.064Z,9.07
2022-11-20T06:04:00.515Z,10.27
2022-11-20T06:06:28.607Z,8.85
2022-11-20T06:08:56.681Z,8.13
2022-11-20T06:11:24.775Z,7.93
2022-11-20T06:13:53.493Z,8.20
2022-11-20T06:16:22.793Z,8.45
2022-11-20T06:18:51.440Z,8.82
2022-11-20T06:21:22.690Z,7.85
2022-11-20T06:23:52.138Z,8.50
2022-11-20T06:26:23.569Z,7.97
2022-11-20T06:28:52.768Z,7.95
2022-11-20T06:31:22.672Z,8.95
2022-11-20T06:33:51.422Z,7.50
2022-11-20T06:36:23.538Z,8.13
2022-11-20T06:38:52.142Z,7.85
2022-11-20T06:41:21.888Z,8.32
2022-11-20T06:43:50.224Z,8.95
2022-11-20T06:46:20.291Z,8.38
2022-11-20T06:48:48.911Z,8.23
2022-11-20T06:51:17.603Z,7.82
2022-11-20T06:53:47.535Z,8.82
2022-11-20T06:56:15.792Z,8.25
2022-11-20T06:58:43.763Z,7.75
2022-11-20T07:01:14.510Z,7.95
2022-11-20T07:03:43.680Z,8.68
2022-11-20T07:06:12.286Z,8.43
2022-11-20T07:08:40.365Z,7.93
2022-11-20T07:11:10.252Z,9.07
2022-11-20T07:13:38.195Z,8.43
2022-11-20T07:16:09.153Z,8.02
2022-11-20T07:18:37.978Z,7.55
2022-11-20T07:21:08.079Z,8.65
2022-11-20T07:23:36.432Z,7.95
2022-11-20T07:26:05.883Z,8.55
2022-11-20T07:28:35.949Z,8.23
2022-11-20T07:31:05.799Z,7.18
2022-11-20T07:33:34.071Z,8.75
2022-11-20T07:36:02.570Z,8.68
2022-11-20T07:38:31.086Z,7.85
2022-11-20T07:41:02.451Z,8.30
2022-11-20T07:43:30.970Z,8.30
2022-11-20T07:46:02.103Z,8.27
2022-11-20T07:48:30.284Z,7.85
2022-11-20T07:50:59.053Z,9.40
2022-11-20T07:53:27.217Z,8.02
2022-11-20T07:55:55.161Z,8.88
2022-11-20T07:58:23.971Z,7.90
2022-11-20T08:00:52.143Z,7.93
2022-11-20T08:03:25.020Z,9.48
2022-11-20T08:05:53.892Z,8.18
2022-11-20T08:08:22.101Z,7.32
2022-11-20T08:10:50.218Z,8.18
2022-11-20T08:13:35.820Z,7.88
2022-11-20T08:16:03.839Z,7.65
2022-11-20T08:18:33.405Z,7.57
2022-11-20T08:21:05.276Z,7.57
2022-11-20T08:23:33.672Z,7.63
2022-11-20T08:26:01.655Z,7.85
2022-11-20T08:28:29.732Z,7.55
2022-11-20T08:31:00.889Z,8.10
2022-11-20T08:33:29.301Z,8.55
2022-11-20T08:36:02.537Z,8.15
2022-11-20T08:38:30.804Z,8.05
2022-11-20T08:41:17.395Z,8.50
2022-11-20T08:43:45.384Z,8.50
2022-11-20T08:46:13.707Z,8.18
2022-11-20T08:48:42.165Z,8.32
2022-11-20T08:51:12.017Z,8.20
2022-11-20T08:53:40.249Z,8.80
2022-11-20T08:56:08.994Z,8.35
2022-11-20T08:59:01.795Z,8.70
2022-11-20T09:01:25.953Z,8.80
2022-11-20T09:03:54.373Z,8.70
2022-11-20T09:06:23.892Z,8.13
2022-11-20T09:08:54.700Z,7.93
2022-11-20T09:11:23.054Z,8.65
2022-11-20T09:13:51.449Z,8.65
2022-11-20T09:16:19.523Z,8.43
2022-11-20T09:18:53.949Z,8.63
2022-11-20T09:21:31.458Z,8.70
2022-11-20T09:23:59.691Z,8.60
2022-11-20T09:26:27.579Z,9.05
2022-11-20T09:28:58.149Z,8.40
2022-11-20T09:31:27.591Z,9.23
2022-11-20T09:33:55.844Z,9.45
2022-11-20T09:36:23.812Z,9.52
2022-11-20T09:38:53.331Z,9.45
2022-11-20T09:41:38.370Z,9.70
2022-11-20T09:44:21.117Z,8.88
2022-11-20T09:47:01.632Z,8.45
2022-11-20T09:49:52.239Z,8.43
2022-11-20T09:52:36.984Z,9.32
2022-11-20T09:55:19.847Z,9.25
2022-11-20T09:58:02.911Z,8.27
2022-11-20T10:00:48.961Z,8.68
2022-11-20T10:06:16.954Z,8.95
2022-11-20T10:08:59.088Z,7.45
2022-11-20T10:11:47.857Z,8.93
2022-11-20T10:14:28.368Z,8.77
2022-11-20T10:17:09.609Z,9.10
2022-11-20T10:20:05.631Z,8.68
2022-11-20T10:22:53.901Z,7.82
2022-11-20T10:25:24.226Z,8.57
2022-11-20T10:28:17.631Z,8.07
2022-11-20T10:30:48.504Z,8.88
2022-11-20T10:33:21.740Z,8.52
2022-11-20T10:35:57.540Z,8.82
2022-11-20T10:38:42.589Z,8.13
2022-11-20T10:41:35.948Z,7.60
2022-11-20T10:44:43.661Z,8.23
2022-11-20T10:47:25.252Z,7.38
2022-11-20T10:50:22.461Z,7.38
2022-11-20T10:56:29.968Z,8.13
2022-11-20T11:02:11.434Z,7.85
2022-11-20T11:05:01.767Z,8.30
2022-11-20T11:07:43.535Z,8.05
2022-11-20T11:10:25.438Z,8.13
2022-11-20T11:12:54.406Z,7.55
2022-11-20T11:15:31.365Z,7.65
2022-11-20T11:18:00.957Z,7.90
2022-11-20T11:20:28.954Z,7.55
2022-11-20T11:22:59.016Z,7.38
2022-11-20T11:25:31.034Z,7.22
2022-11-20T11:28:13.050Z,7.40
2022-11-20T11:30:54.154Z,8.25
2022-11-20T11:33:41.720Z,7.75
2022-11-20T11:36:30.685Z,8.23
2022-11-20T11:39:36.583Z,7.55
2022-11-20T11:45:25.900Z,7.78
2022-11-20T11:48:04.906Z,6.43
2022-11-20T11:50:59.525Z,6.65
2022-11-20T11:53:36.177Z,6.95
2022-11-20T11:56:15.299Z,6.97
2022-11-20T11:58:52.884Z,7.63
2022-11-20T12:01:32.969Z,7.72
2022-11-20T12:04:07.619Z,7.05
2022-11-20T12:06:40.209Z,7.13
2022-11-20T12:09:13.899Z,6.80
2022-11-20T12:11:50.518Z,6.50
2022-11-20T12:14:24.998Z,7.03
2022-11-20T12:17:09.824Z,6.63
2022-11-20T12:19:57.464Z,6.55
2022-11-20T12:23:02.921Z,5.20
2022-11-20T12:26:00.771Z,5.53
2022-11-20T12:29:06.201Z,4.40
2022-11-20T12:32:07.436Z,5.20
2022-11-20T12:35:28.771Z,5.45
2022-11-20T12:38:34.101Z,4.60
2022-11-20T12:41:10.993Z,5.00
2022-11-20T12:44:06.144Z,5.15
2022-11-20T12:46:49.368Z,5.18
2022-11-20T12:49:40.034Z,5.23
2022-11-20T12:52:22.105Z,4.95
2022-11-20T12:55:13.163Z,4.28
2022-11-20T12:57:50.685Z,4.18
2022-11-20T13:00:21.949Z,4.70
2022-11-20T13:03:15.505Z,5.03
2022-11-20T13:05:55.232Z,4.22
2022-11-20T13:08:35.939Z,4.25
2022-11-20T13:11:28.544Z,4.60
2022-11-20T13:14:31.909Z,4.93
2022-11-20T13:17:48.582Z,4.75
2022-11-20T13:20:40.222Z,4.68
2022-11-20T13:23:50.418Z,4.32
2022-11-20T13:26:35.722Z,4.50
2022-11-20T13:29:24.505Z,4.75
2022-11-20T13:32:11.973Z,4.65
2022-11-20T13:34:43.355Z,5.35
2022-11-20T13:37:38.758Z,5.60
2022-11-20T13:40:41.366Z,5.65
2022-11-20T13:43:19.979Z,5.28
2022-11-20T13:45:58.045Z,5.50
2022-11-20T13:48:28.577Z,5.80
2022-11-20T13:51:08.624Z,5.90
2022-11-20T13:54:05.119Z,6.15
2022-11-20T13:56:49.465Z,5.35
2022-11-20T13:59:40.141Z,5.53
2022-11-20T14:02:34.998Z,5.18
2022-11-20T14:05:42.883Z,5.72
2022-11-20T14:08:41.494Z,5.05
2022-11-20T14:14:21.650Z,5.60
2022-11-20T14:17:01.615Z,5.70
2022-11-20T14:19:40.537Z,5.68
2022-11-20T14:22:24.117Z,5.25
2022-11-20T14:25:11.534Z,5.60
2022-11-20T14:27:54.889Z,5.18
2022-11-20T14:30:49.904Z,5.07
2022-11-20T14:33:21.153Z,5.88
2022-11-20T14:35:51.953Z,5.97
2022-11-20T14:38:26.073Z,6.25
2022-11-20T14:40:54.984Z,5.53
2022-11-20T14:43:26.399Z,5.78
2022-11-20T14:46:06.048Z,5.63
2022-11-20T14:48:49.433Z,5.57
2022-11-20T14:51:43.950Z,5.78
2022-11-20T14:54:34.520Z,6.13
2022-11-20T14:57:38.142Z,6.07
2022-11-20T15:00:11.120Z,5.95
2022-11-20T15:02:43.835Z,6.45
2022-11-20T15:05:16.594Z,6.10
2022-11-20T15:07:48.248Z,5.63
2022-11-20T15:10:25.432Z,6.80
2022-11-20T15:12:55.358Z,5.80
2022-11-20T15:15:30.316Z,5.88
2022-11-20T15:18:00.388Z,6.28
2022-11-20T15:20:34.304Z,6.55
2022-11-20T15:23:04.132Z,6.57
2022-11-20T15:25:33.658Z,6.43
2022-11-20T15:28:02.325Z,6.55
2022-11-20T15:30:31.576Z,6.30
2022-11-20T15:33:31.374Z,6.53
2022-11-20T15:36:35.651Z,7.00
2022-11-20T15:39:26.585Z,6.20
2022-11-20T15:42:21.853Z,6.65
2022-11-20T15:47:53.906Z,7.30
2022-11-20T15:50:45.460Z,7.65
2022-11-20T15:53:43.077Z,7.32
2022-11-20T15:56:20.268Z,7.43
2022-11-20T15:59:13.078Z,7.35
2022-11-20T16:02:02.285Z,7.55
2022-11-20T16:04:48.731Z,8.30
2022-11-20T16:07:27.015Z,8.02
2022-11-20T16:10:10.764Z,7.43
2022-11-20T16:12:57.882Z,8.93
2022-11-20T16:15:43.789Z,7.13
2022-11-20T16:18:13.511Z,8.80
2022-11-20T16:20:42.360Z,8.32
2022-11-20T16:23:26.442Z,8.48
2022-11-20T16:26:18.718Z,8.20
2022-11-20T16:29:16.774Z,8.60
2022-11-20T16:32:12.230Z,9.20
2022-11-20T16:38:27.355Z,8.55
2022-11-20T16:41:24.255Z,8.63
2022-11-20T16:44:20.021Z,9.88
2022-11-20T16:47:10.591Z,9.02
2022-11-20T16:50:16.185Z,9.55
2022-11-20T16:53:11.112Z,9.68
2022-11-20T16:55:59.038Z,8.93
2022-11-20T16:59:03.309Z,9.32
2022-11-20T17:01:35.964Z,8.68
2022-11-20T17:04:07.507Z,8.68
2022-11-20T17:06:37.579Z,9.18
2022-11-20T17:09:06.991Z,9.35
2022-11-20T17:11:57.280Z,9.68
2022-11-20T17:15:15.437Z,8.73
2022-11-20T17:18:17.728Z,8.80
2022-11-20T17:21:34.539Z,8.93
2022-11-20T17:24:46.782Z,10.30
2022-11-20T17:28:15.589Z,9.20
2022-11-20T17:34:13.653Z,9.30
2022-11-20T17:37:18.500Z,9.85
2022-11-20T17:39:52.588Z,10.10
2022-11-20T17:43:17.570Z,9.63
2022-11-20T17:49:22.755Z,10.50
2022-11-20T17:51:54.233Z,10.23
2022-11-20T17:54:22.984Z,10.77
2022-11-20T17:57:08.868Z,9.70
2022-11-20T17:59:41.148Z,10.57
2022-11-20T18:02:21.759Z,10.82
2022-11-20T18:08:29.186Z,10.65
2022-11-20T18:11:20.586Z,10.55
2022-11-20T18:18:26.098Z,9.10
2022-11-20T18:21:18.589Z,9.18
2022-11-20T18:23:57.937Z,9.82
2022-11-20T18:26:46.852Z,10.43
2022-11-20T18:29:27.297Z,9.48
2022-11-20T18:35:14.559Z,9.82
2022-11-20T18:38:09.650Z,11.23
2022-11-20T18:41:11.401Z,10.77
2022-11-20T18:43:58.134Z,10.10
2022-11-20T18:46:35.868Z,10.15
2022-11-20T18:49:03.816Z,11.27
2022-11-20T18:51:31.971Z,10.20
2022-11-20T18:54:01.417Z,13.02
2022-11-20T18:56:29.513Z,11.30
2022-11-20T18:59:21.526Z,11.70
2022-11-20T19:02:04.160Z,10.65
2022-11-20T19:04:53.831Z,11.43
2022-11-20T19:08:07.919Z,10.32
2022-11-20T19:10:59.207Z,10.70
2022-11-20T19:13:57.149Z,10.82
2022-11-20T19:16:29.874Z,10.65
2022-11-20T19:19:05.251Z,11.02
2022-11-20T19:21:39.205Z,11.32
2022-11-20T19:24:16.062Z,11.32
2022-11-20T19:26:57.671Z,12.10
2022-11-20T19:29:51.018Z,11.38
2022-11-20T19:32:19.157Z,11.50
2022-11-20T19:34:47.412Z,11.40
2022-11-20T19:37:15.499Z,11.00
2022-11-20T19:39:43.983Z,11.48
2022-11-20T19:42:13.556Z,12.35
2022-11-20T19:44:43.424Z,12.35
2022-11-20T19:47:19.563Z,12.13
2022-11-20T19:50:12.563Z,11.65
2022-11-20T19:52:59.079Z,11.65
2022-11-20T19:55:58.802Z,12.00
2022-11-20T20:01:46.010Z,10.88
2022-11-20T20:04:52.572Z,12.00
2022-11-20T20:07:36.746Z,11.30
2022-11-20T20:10:25.005Z,11.45
2022-11-20T20:13:02.805Z,11.55
2022-11-20T20:15:41.203Z,11.77
2022-11-20T20:18:28.528Z,12.68
2022-11-20T20:21:24.087Z,12.32
2022-11-20T20:23:55.426Z,12.57
2022-11-20T20:26:24.818Z,11.63
2022-11-20T20:28:52.919Z,11.40
2022-11-20T20:31:25.599Z,12.48
2022-11-20T20:34:06.186Z,12.43
2022-11-20T20:36:47.897Z,11.40
2022-11-20T20:39:37.660Z,12.48
2022-11-20T20:42:22.056Z,12.70
2022-11-20T20:45:15.035Z,11.95
2022-11-20T20:48:31.893Z,12.07
2022-11-20T20:51:18.787Z,12.18
2022-11-20T20:54:10.759Z,11.90
2022-11-20T20:57:24.278Z,11.10
2022-11-20T21:00:08.256Z,11.35
2022-11-20T21:03:03.719Z,11.25
2022-11-20T21:05:48.331Z,12.40
2022-11-20T21:08:40.313Z,11.73
2022-11-20T21:11:35.428Z,11.17
2022-11-20T21:14:03.507Z,10.10
2022-11-20T21:16:41.158Z,11.27
2022-11-20T21:19:09.229Z,11.38
2022-11-20T21:22:06.175Z,11.75
2022-11-20T21:24:53.683Z,10.85
2022-11-20T21:28:03.505Z,11.20
2022-11-20T21:30:41.299Z,12.15
2022-11-20T21:33:18.231Z,12.18
2022-11-20T21:36:11.337Z,11.13
2022-11-20T21:42:16.741Z,11.15
2022-11-20T21:45:30.773Z,11.30
2022-11-20T21:48:38.258Z,10.98
2022-11-20T21:51:19.938Z,11.00
2022-11-20T21:53:51.497Z,11.68
2022-11-20T21:56:20.968Z,12.35
2022-11-20T21:58:50.300Z,11.80
2022-11-20T22:01:21.329Z,12.25
2022-11-20T22:03:50.421Z,12.35
2022-11-20T22:06:18.908Z,11.80
2022-11-20T22:08:46.868Z,13.07
2022-11-20T22:11:24.635Z,11.82
2022-11-20T22:14:26.346Z,12.02
2022-11-20T22:20:50.406Z,12.70
2022-11-20T22:23:32.703Z,12.55
2022-11-20T22:26:38.651Z,13.02
2022-11-20T22:29:26.186Z,12.60
2022-11-20T22:35:18.532Z,12.95
2022-11-20T22:38:18.014Z,12.68
2022-11-20T22:41:14.707Z,12.30
2022-11-20T22:44:12.746Z,12.07
2022-11-20T22:47:00.194Z,13.10
2022-11-20T22:49:52.674Z,12.43
2022-11-20T22:52:22.463Z,12.20
2022-11-20T22:54:50.594Z,12.25
2022-11-20T22:57:18.558Z,12.57
2022-11-20T22:59:46.597Z,12.35
2022-11-20T23:02:16.291Z,12.80
2022-11-20T23:04:44.190Z,11.93
2022-11-20T23:07:12.197Z,13.27
2022-11-20T23:10:07.001Z,12.07
2022-11-20T23:12:41.071Z,11.65
2022-11-20T23:15:36.249Z,11.90
2022-11-20T23:18:20.386Z,12.75
2022-11-20T23:20:58.807Z,13.07
2022-11-20T23:23:59.366Z,13.32
2022-11-20T23:26:39.412Z,12.65
2022-11-20T23:29:15.210Z,12.57
2022-11-20T23:31:49.427Z,12.73
2022-11-20T23:37:11.701Z,13.27
2022-11-20T23:39:45.897Z,12.57
2022-11-20T23:42:14.625Z,12.52
2022-11-20T23:44:42.648Z,13.20
2022-11-20T23:47:10.877Z,13.30
2022-11-20T23:49:40.521Z,12.48
2022-11-20T23:52:08.801Z,13.10
2022-11-20T23:54:36.764Z,13.32
